Time;durP1;ratioP1;P1;durP2;ratioP2;P2;SDS_P1;SDS_P2;PMS_P1;PMS_P2;Temp;Humidity;BMP_temperature;BMP_pressure;BME280_temperature;BME280_humidity;BME280_pressure;Samples;Min_cycle;Max_cycle;Signal;HPM_P1;HPM_P2
2023/06/15 00:00:19;;;;;;;5.93;4.10;;;13.40;99.90;;;;;;5138152;27;20213;-81
2023/06/15 00:02:47;;;;;;;4.97;4.20;;;13.40;99.90;;;;;;5135927;27;20554;-80
2023/06/15 00:05:17;;;;;;;5.17;3.90;;;13.30;99.90;;;;;;5137427;27;20240;-80
2023/06/15 00:07:46;;;;;;;4.93;3.97;;;13.30;99.90;;;;;;5153653;27;20292;-79
2023/06/15 00:10:14;;;;;;;6.10;4.00;;;13.30;99.90;;;;;;5155815;27;20693;-80
2023/06/15 00:12:42;;;;;;;7.03;4.10;;;13.20;99.90;;;;;;5155387;27;20297;-80
2023/06/15 00:15:11;;;;;;;5.97;4.60;;;13.30;99.90;;;;;;5154144;27;20204;-80
2023/06/15 00:17:41;;;;;;;6.77;4.13;;;13.20;99.90;;;;;;5156547;27;20240;-82
2023/06/15 00:20:12;;;;;;;6.20;4.10;;;13.20;99.90;;;;;;5160642;27;20612;-79
2023/06/15 00:22:45;;;;;;;5.90;4.47;;;13.20;99.90;;;;;;5157153;27;20201;-80
2023/06/15 00:25:15;;;;;;;5.40;3.90;;;13.20;99.90;;;;;;5144294;27;20638;-79
2023/06/15 00:27:45;;;;;;;4.77;4.10;;;13.20;99.90;;;;;;5131992;27;20221;-79
2023/06/15 00:30:14;;;;;;;5.70;4.17;;;13.20;99.90;;;;;;5149815;27;20209;-79
2023/06/15 00:32:42;;;;;;;5.00;4.17;;;13.20;99.90;;;;;;5135709;27;20284;-79
2023/06/15 00:35:10;;;;;;;7.40;4.03;;;13.10;99.90;;;;;;5134833;27;20201;-81
2023/06/15 00:37:39;;;;;;;5.13;4.23;;;13.10;99.90;;;;;;5134859;27;20205;-79
2023/06/15 00:40:10;;;;;;;5.77;4.37;;;13.10;99.90;;;;;;5134134;27;20635;-80
2023/06/15 00:42:38;;;;;;;7.03;4.27;;;13.20;99.90;;;;;;5133872;27;20198;-81
2023/06/15 00:45:07;;;;;;;4.87;3.80;;;13.10;99.90;;;;;;5133496;27;20205;-78
2023/06/15 00:47:38;;;;;;;4.77;4.00;;;13.10;99.90;;;;;;5133973;27;20247;-81
2023/06/15 00:50:10;;;;;;;7.33;4.30;;;13.10;99.90;;;;;;5133502;27;20277;-81
2023/06/15 00:52:39;;;;;;;5.10;4.10;;;13.20;99.90;;;;;;5140045;27;20221;-81
2023/06/15 00:55:12;;;;;;;5.23;4.30;;;13.20;99.90;;;;;;5154415;27;20208;-81
2023/06/15 00:57:44;;;;;;;4.77;4.27;;;13.20;99.90;;;;;;5154026;27;20192;-78
2023/06/15 01:00:14;;;;;;;5.50;3.80;;;13.10;99.90;;;;;;5149231;27;20254;-79
2023/06/15 01:02:44;;;;;;;4.83;3.93;;;13.20;99.90;;;;;;5147514;27;20193;-80
2023/06/15 01:05:16;;;;;;;4.70;4.17;;;13.10;99.90;;;;;;5160229;27;20204;-80
2023/06/15 01:07:48;;;;;;;4.73;4.20;;;13.20;99.90;;;;;;5154261;27;20189;-80
2023/06/15 01:10:20;;;;;;;7.00;4.07;;;13.20;99.90;;;;;;5133414;27;20309;-79
2023/06/15 01:12:50;;;;;;;5.37;4.20;;;13.10;99.90;;;;;;5133684;27;20221;-79
2023/06/15 01:15:19;;;;;;;5.53;4.60;;;13.20;99.90;;;;;;5133261;27;20237;-78
2023/06/15 01:17:53;;;;;;;5.47;4.10;;;13.10;99.90;;;;;;5133531;27;20209;-80
2023/06/15 01:20:28;;;;;;;4.43;4.03;;;13.10;99.90;;;;;;5133210;27;20285;-80
2023/06/15 01:23:01;;;;;;;5.20;4.27;;;13.10;99.90;;;;;;5133191;27;20186;-81
2023/06/15 01:25:46;;;;;;;6.77;4.50;;;13.00;99.90;;;;;;5153845;27;20224;-80
2023/06/15 01:28:20;;;;;;;4.40;4.00;;;13.00;99.90;;;;;;5154474;27;20270;-80
2023/06/15 01:30:50;;;;;;;5.43;4.37;;;12.90;99.90;;;;;;5153684;27;20658;-80
2023/06/15 01:36:05;;;;;;;6.47;4.60;;;12.90;99.90;;;;;;5138366;27;20629;-78
2023/06/15 01:38:33;;;;;;;6.90;4.30;;;12.90;99.90;;;;;;5135128;27;20212;-80
2023/06/15 01:41:02;;;;;;;5.53;4.40;;;12.80;99.90;;;;;;5132827;27;20227;-80
2023/06/15 01:43:33;;;;;;;4.63;4.17;;;12.80;99.90;;;;;;5132845;27;20204;-81
2023/06/15 01:46:02;;;;;;;5.63;4.37;;;12.80;99.90;;;;;;5133361;27;20201;-81
2023/06/15 01:48:31;;;;;;;5.50;4.53;;;12.80;99.90;;;;;;5132593;27;20666;-79
2023/06/15 01:51:01;;;;;;;6.10;4.70;;;12.70;99.90;;;;;;5137180;27;20208;-79
2023/06/15 01:53:30;;;;;;;7.57;4.77;;;12.70;99.90;;;;;;5153360;27;20407;-80
2023/06/15 01:55:59;;;;;;;5.20;4.60;;;12.70;99.90;;;;;;5152817;27;20205;-81
2023/06/15 01:58:28;;;;;;;5.93;4.70;;;12.60;99.90;;;;;;5134404;27;20237;-81
2023/06/15 02:00:57;;;;;;;5.57;5.00;;;12.60;99.90;;;;;;5132322;28;20262;-80
2023/06/15 02:03:26;;;;;;;7.07;4.93;;;12.50;99.90;;;;;;5132728;28;20202;-80
2023/06/15 02:05:54;;;;;;;5.57;4.70;;;12.50;99.90;;;;;;5132901;27;20209;-79
2023/06/15 02:08:22;;;;;;;6.40;4.67;;;12.50;99.90;;;;;;5132833;28;20209;-80
2023/06/15 02:10:50;;;;;;;6.20;4.70;;;12.50;99.90;;;;;;5132563;28;20251;-79
2023/06/15 02:13:18;;;;;;;6.80;4.77;;;12.40;99.90;;;;;;5132241;27;20636;-79
2023/06/15 02:15:46;;;;;;;6.30;4.93;;;12.40;99.90;;;;;;5132521;28;20206;-79
2023/06/15 02:18:16;;;;;;;4.83;4.30;;;12.30;99.90;;;;;;5132528;28;20614;-81
2023/06/15 02:20:45;;;;;;;6.40;5.00;;;12.30;99.90;;;;;;5132479;28;20286;-79
2023/06/15 02:23:14;;;;;;;7.60;4.80;;;12.30;99.90;;;;;;5131937;27;20205;-79
2023/06/15 02:25:42;;;;;;;6.17;4.97;;;12.30;99.90;;;;;;5134456;28;20415;-80
2023/06/15 02:28:10;;;;;;;5.53;4.83;;;12.30;99.90;;;;;;5132593;28;20210;-79
2023/06/15 02:30:39;;;;;;;6.57;5.03;;;12.20;99.90;;;;;;5131961;27;20214;-79
2023/06/15 02:33:07;;;;;;;5.70;4.90;;;12.20;99.90;;;;;;5131964;28;20583;-79
2023/06/15 02:35:37;;;;;;;6.40;5.20;;;12.10;99.90;;;;;;5137584;28;20201;-81
2023/06/15 02:38:05;;;;;;;6.87;4.97;;;12.10;99.90;;;;;;5131852;27;20263;-80
2023/06/15 02:40:33;;;;;;;6.73;5.17;;;12.10;99.90;;;;;;5132507;28;20202;-79
2023/06/15 02:43:02;;;;;;;6.03;5.00;;;12.00;99.90;;;;;;5132078;28;20198;-79
2023/06/15 02:45:30;;;;;;;7.47;4.93;;;12.00;99.90;;;;;;5132531;28;20209;-79
2023/06/15 02:47:59;;;;;;;9.13;5.77;;;12.00;99.90;;;;;;5132182;27;20227;-79
2023/06/15 02:50:27;;;;;;;6.77;4.70;;;12.00;99.90;;;;;;5144228;27;20204;-78
2023/06/15 02:52:57;;;;;;;6.80;5.30;;;12.00;99.90;;;;;;5152754;27;20250;-80
2023/06/15 02:55:25;;;;;;;5.97;5.27;;;11.90;99.90;;;;;;5137658;27;20251;-78
2023/06/15 02:57:53;;;;;;;6.23;5.30;;;11.90;99.90;;;;;;5131998;28;20664;-78
2023/06/15 03:00:23;;;;;;;8.30;5.67;;;11.90;99.90;;;;;;5132073;28;20287;-80
2023/06/15 03:02:52;;;;;;;6.30;5.10;;;11.90;99.90;;;;;;5131833;27;20205;-79
2023/06/15 03:05:20;;;;;;;7.47;5.33;;;11.90;99.90;;;;;;5132404;28;20992;-80
2023/06/15 03:07:48;;;;;;;5.93;4.80;;;11.90;99.90;;;;;;5133288;27;20205;-79
2023/06/15 03:10:18;;;;;;;5.57;4.90;;;11.90;99.90;;;;;;5135574;27;20220;-79
2023/06/15 03:12:46;;;;;;;6.77;5.20;;;11.90;99.90;;;;;;5137913;27;20213;-80
2023/06/15 03:15:14;;;;;;;10.60;5.67;;;12.00;99.90;;;;;;5138039;27;20210;-79
2023/06/15 03:17:43;;;;;;;6.10;5.50;;;12.00;99.90;;;;;;5135508;27;20304;-79
2023/06/15 03:20:12;;;;;;;8.07;5.73;;;12.00;99.90;;;;;;5135855;27;20217;-81
2023/06/15 03:22:42;;;;;;;6.10;5.10;;;12.00;99.90;;;;;;5135298;27;20205;-80
2023/06/15 03:25:11;;;;;;;5.93;4.70;;;12.00;99.90;;;;;;5146838;27;20208;-79
2023/06/15 03:27:42;;;;;;;7.97;5.27;;;12.00;99.90;;;;;;5155243;27;20204;-79
2023/06/15 03:30:12;;;;;;;6.30;5.07;;;12.10;99.90;;;;;;5155591;27;20671;-80
2023/06/15 03:32:41;;;;;;;6.50;5.10;;;12.10;99.90;;;;;;5153974;27;20702;-79
2023/06/15 03:35:12;;;;;;;5.77;5.17;;;12.10;99.90;;;;;;5156350;27;20201;-80
2023/06/15 03:37:40;;;;;;;6.70;5.60;;;12.10;99.90;;;;;;5156226;27;20360;-80
2023/06/15 03:40:09;;;;;;;8.60;5.60;;;12.10;99.90;;;;;;5144300;27;20205;-79
2023/06/15 03:42:37;;;;;;;7.23;5.50;;;12.10;99.90;;;;;;5127092;27;20205;-79
2023/06/15 03:45:08;;;;;;;6.53;5.63;;;12.20;99.90;;;;;;5135858;27;20251;-79
2023/06/15 03:47:36;;;;;;;6.60;5.77;;;12.20;99.90;;;;;;5136191;27;20206;-79
2023/06/15 03:50:06;;;;;;;6.33;5.27;;;12.20;99.90;;;;;;5142030;27;20197;-79
2023/06/15 03:52:35;;;;;;;6.93;5.10;;;12.20;99.90;;;;;;5158133;27;20204;-79
2023/06/15 03:55:05;;;;;;;6.27;5.60;;;12.30;99.90;;;;;;5156844;27;20224;-79
2023/06/15 03:57:33;;;;;;;6.33;5.43;;;12.30;99.90;;;;;;5147095;27;20213;-79
2023/06/15 04:00:01;;;;;;;6.83;5.10;;;12.40;99.90;;;;;;5136390;27;20266;-79
2023/06/15 04:02:31;;;;;;;6.83;5.60;;;12.50;99.90;;;;;;5135134;27;20217;-79
2023/06/15 04:05:00;;;;;;;8.30;5.07;;;12.50;99.90;;;;;;5142171;27;20227;-79
2023/06/15 04:07:29;;;;;;;8.73;5.40;;;12.50;99.90;;;;;;5148527;27;20246;-78
2023/06/15 04:09:57;;;;;;;8.23;5.30;;;12.60;99.90;;;;;;5151319;27;20212;-79
2023/06/15 04:12:25;;;;;;;6.03;5.43;;;12.70;99.90;;;;;;5144535;27;20291;-80
2023/06/15 04:14:53;;;;;;;10.10;5.63;;;12.70;99.90;;;;;;5155341;27;20216;-79
2023/06/15 04:17:21;;;;;;;6.97;5.43;;;12.80;99.90;;;;;;5155031;27;20244;-80
2023/06/15 04:19:51;;;;;;;8.07;5.17;;;12.90;99.90;;;;;;5154341;27;20227;-80
2023/06/15 04:22:19;;;;;;;7.20;4.97;;;12.90;99.90;;;;;;5138875;27;20248;-78
2023/06/15 04:24:47;;;;;;;7.57;5.30;;;13.00;99.90;;;;;;5134121;27;20726;-80
2023/06/15 04:27:18;;;;;;;6.07;5.10;;;13.10;99.90;;;;;;5133759;27;20697;-80
2023/06/15 04:29:49;;;;;;;6.73;5.07;;;13.20;99.90;;;;;;5134186;27;20193;-79
2023/06/15 04:32:18;;;;;;;6.60;4.80;;;13.40;99.90;;;;;;5133782;27;20261;-78
2023/06/15 04:34:46;;;;;;;8.43;4.83;;;13.50;99.90;;;;;;5134133;27;20274;-81
2023/06/15 04:37:16;;;;;;;6.17;4.93;;;13.60;99.90;;;;;;5134394;27;20220;-79
2023/06/15 04:39:45;;;;;;;9.70;5.60;;;13.80;99.90;;;;;;5133979;27;20209;-80
2023/06/15 04:42:13;;;;;;;5.97;4.70;;;13.90;99.90;;;;;;5134045;27;20216;-80
2023/06/15 04:44:41;;;;;;;5.67;4.63;;;14.00;99.90;;;;;;5133628;27;20209;-79
2023/06/15 04:47:10;;;;;;;6.57;5.17;;;14.20;99.90;;;;;;5142288;27;20216;-79
2023/06/15 04:49:42;;;;;;;5.57;4.97;;;14.30;99.90;;;;;;5155895;27;20216;-79
2023/06/15 04:52:10;;;;;;;9.10;4.83;;;14.50;99.90;;;;;;5143630;27;20266;-80
2023/06/15 04:54:40;;;;;;;7.13;4.47;;;14.60;99.90;;;;;;5136332;27;20638;-80
2023/06/15 04:57:08;;;;;;;6.07;4.70;;;14.70;99.90;;;;;;5136811;27;20202;-80
2023/06/15 04:59:38;;;;;;;5.23;4.70;;;14.80;99.90;;;;;;5135067;27;20233;-80
2023/06/15 05:02:07;;;;;;;6.97;4.83;;;14.80;99.90;;;;;;5133078;27;20418;-78
2023/06/15 05:04:35;;;;;;;7.13;4.90;;;15.00;99.90;;;;;;5134259;27;20251;-81
2023/06/15 05:07:04;;;;;;;5.73;4.90;;;15.10;99.90;;;;;;5133750;27;20205;-78
2023/06/15 05:09:32;;;;;;;6.87;4.70;;;15.10;99.90;;;;;;5152315;27;20568;-78
2023/06/15 05:12:02;;;;;;;4.93;4.47;;;15.30;99.90;;;;;;5154708;27;20192;-80
2023/06/15 05:14:30;;;;;;;8.73;4.90;;;15.40;99.90;;;;;;5154035;27;20231;-80
2023/06/15 05:17:03;;;;;;;7.97;4.83;;;15.50;99.90;;;;;;5154769;27;20209;-79
2023/06/15 05:19:31;;;;;;;8.83;5.17;;;15.50;99.90;;;;;;5133916;27;20209;-79
2023/06/15 05:22:01;;;;;;;7.00;5.07;;;15.80;99.90;;;;;;5133131;27;20206;-77
2023/06/15 05:24:29;;;;;;;6.17;4.47;;;15.90;99.90;;;;;;5133508;27;20209;-79
2023/06/15 05:26:57;;;;;;;6.97;4.33;;;16.10;99.90;;;;;;5133207;27;20208;-78
2023/06/15 05:29:27;;;;;;;7.13;5.17;;;16.30;99.90;;;;;;5134218;27;20251;-82
2023/06/15 05:31:55;;;;;;;6.50;4.90;;;16.40;99.90;;;;;;5133227;27;20233;-78
2023/06/15 05:34:24;;;;;;;8.40;5.03;;;16.30;99.90;;;;;;5137721;27;20225;-79
2023/06/15 05:36:52;;;;;;;7.23;4.97;;;16.20;99.90;;;;;;5150124;27;20213;-81
2023/06/15 05:39:25;;;;;;;5.90;4.83;;;16.30;99.90;;;;;;5152810;27;20209;-80
2023/06/15 05:41:54;;;;;;;7.20;4.87;;;16.40;99.90;;;;;;5153138;27;20284;-77
2023/06/15 05:44:22;;;;;;;6.97;4.77;;;16.40;99.90;;;;;;5143651;27;20724;-78
2023/06/15 05:46:52;;;;;;;8.73;5.20;;;16.60;99.90;;;;;;5134530;27;20213;-77
2023/06/15 05:49:21;;;;;;;9.57;4.83;;;16.80;99.90;;;;;;5133265;27;20230;-77
2023/06/15 05:51:49;;;;;;;5.73;4.50;;;17.10;99.90;;;;;;5133175;27;20213;-80
2023/06/15 05:54:18;;;;;;;5.63;4.50;;;17.90;99.90;;;;;;5133598;27;20225;-81
2023/06/15 05:56:46;;;;;;;5.70;4.60;;;18.60;97.40;;;;;;5133083;27;20209;-79
2023/06/15 05:59:14;;;;;;;7.10;4.77;;;19.70;93.00;;;;;;5133446;27;20278;-78
2023/06/15 06:02:01;;;;;;;7.50;4.37;;;20.80;90.10;;;;;;5140138;27;20200;-81
2023/06/15 06:04:30;;;;;;;5.33;4.20;;;21.70;84.30;;;;;;5154003;27;20201;-79
2023/06/15 06:06:58;;;;;;;5.53;4.30;;;22.30;79.60;;;;;;5157410;27;20205;-82
2023/06/15 06:09:26;;;;;;;5.33;3.80;;;22.80;73.90;;;;;;5155684;27;20284;-78
2023/06/15 06:11:54;;;;;;;5.73;4.17;;;23.40;70.90;;;;;;5142261;27;20208;-79
2023/06/15 06:14:23;;;;;;;6.07;4.13;;;24.30;68.10;;;;;;5135596;28;20221;-82
2023/06/15 06:16:51;;;;;;;6.03;4.37;;;24.00;63.10;;;;;;5139615;28;20206;-78
2023/06/15 06:19:20;;;;;;;5.03;3.60;;;24.70;59.80;;;;;;5134816;27;20250;-79
2023/06/15 06:21:48;;;;;;;9.07;4.15;;;24.90;59.30;;;;;;5132076;28;20254;-81
2023/06/15 06:24:17;;;;;;;4.38;3.65;;;24.80;55.90;;;;;;5135538;27;20253;-78
2023/06/15 06:26:50;;;;;;;4.32;3.70;;;24.90;56.60;;;;;;5145017;27;20232;-78
2023/06/15 06:29:18;;;;;;;4.95;4.13;;;24.80;55.90;;;;;;5148662;27;20201;-78
2023/06/15 06:31:46;;;;;;;4.82;3.85;;;25.30;53.80;;;;;;5146335;27;20231;-81
2023/06/15 06:34:15;;;;;;;4.75;3.70;;;25.50;53.10;;;;;;5149130;27;20208;-82
2023/06/15 06:36:44;;;;;;;5.38;3.95;;;25.60;53.70;;;;;;5148241;27;20275;-80
2023/06/15 06:39:12;;;;;;;6.32;3.85;;;25.60;52.10;;;;;;5141450;27;20204;-79
2023/06/15 06:41:41;;;;;;;4.40;3.78;;;26.30;51.20;;;;;;5146796;27;20201;-81
2023/06/15 06:44:09;;;;;;;5.85;4.22;;;25.90;50.60;;;;;;5159628;27;20201;-83
2023/06/15 06:46:37;;;;;;;4.70;3.92;;;25.80;49.80;;;;;;5161898;27;20197;-79
2023/06/15 06:49:05;;;;;;;5.47;4.15;;;25.20;50.70;;;;;;5162124;27;20208;-80
2023/06/15 06:51:33;;;;;;;5.53;4.65;;;24.30;52.70;;;;;;5162143;27;20208;-81
2023/06/15 06:54:03;;;;;;;5.47;4.03;;;23.70;54.80;;;;;;5149201;27;20594;-78
2023/06/15 06:56:31;;;;;;;4.87;4.37;;;22.40;57.30;;;;;;5139899;27;20269;-78
2023/06/15 06:58:59;;;;;;;9.27;4.93;;;23.10;57.40;;;;;;5142889;27;20233;-79
2023/06/15 07:01:28;;;;;;;7.20;4.50;;;23.10;57.50;;;;;;5148407;27;20206;-79
2023/06/15 07:03:57;;;;;;;4.47;4.07;;;22.70;59.70;;;;;;5140376;27;20217;-77
2023/06/15 07:06:26;;;;;;;6.00;4.43;;;22.20;62.00;;;;;;5140425;27;20230;-77
2023/06/15 07:08:54;;;;;;;6.57;4.30;;;22.00;61.40;;;;;;5136953;27;20213;-79
2023/06/15 07:11:24;;;;;;;5.40;4.17;;;22.20;60.60;;;;;;5137167;27;20300;-79
2023/06/15 07:13:53;;;;;;;5.93;4.50;;;22.00;64.60;;;;;;5136537;27;20694;-77
2023/06/15 07:16:21;;;;;;;10.43;4.60;;;21.90;63.50;;;;;;5149753;27;20231;-78
2023/06/15 07:18:50;;;;;;;5.87;4.20;;;22.10;64.40;;;;;;5158743;27;20201;-77
2023/06/15 07:21:18;;;;;;;7.50;4.33;;;22.40;62.80;;;;;;5158062;27;20204;-77
2023/06/15 07:23:46;;;;;;;6.30;4.13;;;22.70;64.10;;;;;;5156983;27;20228;-76
2023/06/15 07:26:21;;;;;;;7.37;4.03;;;23.90;60.70;;;;;;5158680;27;20248;-75
2023/06/15 07:28:51;;;;;;;6.70;4.20;;;25.00;55.90;;;;;;5157365;27;20205;-76
2023/06/15 07:31:19;;;;;;;5.03;3.73;;;26.10;53.50;;;;;;5158551;27;20702;-78
2023/06/15 07:33:48;;;;;;;6.57;3.53;;;26.70;51.10;;;;;;5139101;27;20213;-77
2023/06/15 07:36:16;;;;;;;5.88;3.58;;;26.50;50.70;;;;;;5139205;27;20229;-76
2023/06/15 07:38:44;;;;;;;5.80;3.65;;;27.40;45.70;;;;;;5139585;27;20205;-76
2023/06/15 07:41:13;;;;;;;4.50;3.55;;;28.10;44.30;;;;;;5137427;27;20251;-76
2023/06/15 07:43:41;;;;;;;10.07;3.40;;;28.70;43.10;;;;;;5155457;27;20205;-77
2023/06/15 07:46:11;;;;;;;6.13;3.50;;;28.60;42.40;;;;;;5156128;27;20197;-77
2023/06/15 07:48:39;;;;;;;5.30;3.50;;;29.80;38.80;;;;;;5157913;27;20207;-77
2023/06/15 07:51:07;;;;;;;4.18;3.30;;;29.80;39.10;;;;;;5154995;27;20201;-77
2023/06/15 07:53:39;;;;;;;3.95;3.50;;;30.00;38.90;;;;;;5135977;27;20212;-79
2023/06/15 07:56:07;;;;;;;4.45;3.60;;;30.30;36.50;;;;;;5137431;27;20278;-78
2023/06/15 07:58:36;;;;;;;4.53;3.63;;;30.00;36.10;;;;;;5135671;27;20671;-76
2023/06/15 08:01:06;;;;;;;4.60;3.42;;;29.80;35.70;;;;;;5134255;27;20659;-80
2023/06/15 08:03:36;;;;;;;5.82;3.40;;;30.00;36.10;;;;;;5134709;27;20251;-77
2023/06/15 08:06:04;;;;;;;6.18;3.80;;;29.40;37.30;;;;;;5135204;27;20587;-77
2023/06/15 08:08:32;;;;;;;4.97;3.70;;;29.10;36.30;;;;;;5135840;27;20209;-79
2023/06/15 08:11:01;;;;;;;6.53;3.47;;;27.80;37.90;;;;;;5136522;27;20220;-79
2023/06/15 08:13:29;;;;;;;7.45;3.50;;;29.10;36.80;;;;;;5143404;27;20209;-77
2023/06/15 08:15:58;;;;;;;4.07;3.67;;;29.30;37.40;;;;;;5144309;27;20266;-76
2023/06/15 08:18:26;;;;;;;6.97;3.65;;;29.90;33.80;;;;;;5136477;27;20725;-77
2023/06/15 08:20:56;;;;;;;6.18;3.40;;;30.20;33.90;;;;;;5143423;27;20573;-79
2023/06/15 08:23:25;;;;;;;5.18;3.60;;;28.80;35.40;;;;;;5134789;27;20258;-77
2023/06/15 08:25:53;;;;;;;7.90;3.50;;;29.90;36.20;;;;;;5135326;27;20205;-77
2023/06/15 08:28:21;;;;;;;7.18;3.55;;;30.40;34.10;;;;;;5135738;27;20241;-77
2023/06/15 08:30:50;;;;;;;4.65;3.30;;;30.30;35.90;;;;;;5135329;27;20683;-79
2023/06/15 08:33:20;;;;;;;6.68;3.60;;;30.30;34.10;;;;;;5141702;27;20200;-77
2023/06/15 08:35:48;;;;;;;4.75;3.60;;;30.20;34.30;;;;;;5142686;27;20221;-77
2023/06/15 08:38:17;;;;;;;4.75;3.60;;;30.20;34.20;;;;;;5135747;27;20296;-78
2023/06/15 08:40:46;;;;;;;5.43;3.60;;;30.40;32.10;;;;;;5138898;27;20670;-76
2023/06/15 08:43:17;;;;;;;8.00;3.78;;;30.10;30.00;;;;;;5145987;27;20196;-78
2023/06/15 08:45:48;;;;;;;6.18;3.50;;;28.90;31.60;;;;;;5149348;27;20262;-78
2023/06/15 08:48:18;;;;;;;5.65;3.42;;;29.80;32.10;;;;;;5142416;27;20201;-76
2023/06/15 08:50:49;;;;;;;7.82;3.50;;;29.90;32.70;;;;;;5142505;27;20202;-78
2023/06/15 08:53:22;;;;;;;4.43;3.50;;;29.60;32.90;;;;;;5143656;27;20288;-76
2023/06/15 08:55:51;;;;;;;4.30;3.33;;;29.30;35.60;;;;;;5141728;27;20205;-77
2023/06/15 08:58:19;;;;;;;4.45;3.63;;;29.70;34.00;;;;;;5135833;27;20201;-78
2023/06/15 09:00:47;;;;;;;4.13;3.47;;;30.10;33.30;;;;;;5135001;27;20236;-77
2023/06/15 09:03:18;;;;;;;6.43;3.30;;;32.00;30.70;;;;;;5140339;27;20231;-77
2023/06/15 09:05:47;;;;;;;5.82;3.22;;;32.20;30.80;;;;;;5150041;27;20197;-77
2023/06/15 09:08:15;;;;;;;6.38;3.20;;;30.30;30.50;;;;;;5154939;27;20212;-76
2023/06/15 09:10:45;;;;;;;4.90;3.15;;;31.60;29.70;;;;;;5153145;27;20217;-77
2023/06/15 09:13:17;;;;;;;6.00;3.58;;;31.00;29.80;;;;;;5155052;27;20282;-75
2023/06/15 09:15:50;;;;;;;5.88;3.20;;;30.40;29.20;;;;;;5154650;27;20769;-78
2023/06/15 09:18:18;;;;;;;4.50;3.00;;;27.40;33.40;;;;;;5144564;27;20264;-78
2023/06/15 09:20:49;;;;;;;5.32;3.25;;;26.90;36.40;;;;;;5133801;27;20217;-76
2023/06/15 09:23:17;;;;;;;4.10;3.28;;;26.40;37.40;;;;;;5133870;27;20197;-77
2023/06/15 09:25:52;;;;;;;4.18;3.22;;;26.10;34.70;;;;;;5133573;27;20246;-75
2023/06/15 09:28:22;;;;;;;5.07;3.20;;;25.60;38.00;;;;;;5136552;27;20216;-76
2023/06/15 09:30:55;;;;;;;4.23;3.40;;;25.20;39.90;;;;;;5149736;27;20223;-79
2023/06/15 09:33:25;;;;;;;5.23;3.10;;;24.30;41.70;;;;;;5150063;27;20205;-75
2023/06/15 09:35:58;;;;;;;4.50;3.50;;;24.40;40.90;;;;;;5139530;27;20200;-74
2023/06/15 09:38:28;;;;;;;6.00;3.13;;;23.50;40.20;;;;;;5156454;27;20218;-76
2023/06/15 09:41:02;;;;;;;4.07;3.50;;;23.00;42.60;;;;;;5149560;27;20208;-77
2023/06/15 09:43:33;;;;;;;4.67;3.60;;;22.90;44.00;;;;;;5174840;27;20216;-76
2023/06/15 09:46:03;;;;;;;5.43;3.37;;;22.50;44.10;;;;;;5142890;27;20212;-78
2023/06/15 09:48:31;;;;;;;6.83;3.20;;;22.90;44.30;;;;;;5153868;27;20298;-79
2023/06/15 09:51:01;;;;;;;4.70;3.10;;;24.40;42.40;;;;;;5153236;27;20367;-78
2023/06/15 09:53:31;;;;;;;5.00;3.10;;;25.30;41.90;;;;;;5145093;27;20282;-79
2023/06/15 09:56:02;;;;;;;3.78;2.80;;;26.70;35.20;;;;;;5133872;27;20262;-82
2023/06/15 09:58:48;;;;;;;3.83;3.15;;;27.30;33.70;;;;;;5133694;27;20190;-80
2023/06/15 10:01:19;;;;;;;5.85;3.13;;;28.40;33.40;;;;;;5133701;27;20655;-77
2023/06/15 10:03:54;;;;;;;3.95;3.00;;;29.80;27.60;;;;;;5133147;27;20205;-81
2023/06/15 10:06:25;;;;;;;5.68;2.80;;;30.10;25.80;;;;;;5133110;28;20211;-79
2023/06/15 10:08:57;;;;;;;4.72;3.20;;;30.60;24.90;;;;;;5133226;28;20220;-78
2023/06/15 10:11:28;;;;;;;4.60;3.08;;;30.80;25.60;;;;;;5132353;27;20208;-77
2023/06/15 10:14:04;;;;;;;4.57;3.00;;;30.10;26.60;;;;;;5132686;28;20370;-77
2023/06/15 10:16:33;;;;;;;6.20;3.13;;;29.10;26.60;;;;;;5132847;27;20238;-78
2023/06/15 10:19:04;;;;;;;7.57;2.92;;;29.00;27.80;;;;;;5135926;27;20236;-77
2023/06/15 10:21:36;;;;;;;3.83;2.97;;;30.00;27.30;;;;;;5136954;27;20353;-78
2023/06/15 10:24:12;;;;;;;3.67;2.90;;;29.80;30.20;;;;;;5136574;27;20194;-79
2023/06/15 10:26:42;;;;;;;3.95;2.80;;;30.40;26.50;;;;;;5137046;27;20205;-78
2023/06/15 10:29:21;;;;;;;3.90;2.78;;;30.70;27.00;;;;;;5137004;27;20228;-78
2023/06/15 10:31:59;;;;;;;6.68;3.00;;;31.90;26.90;;;;;;5135823;27;20236;-81
2023/06/15 10:34:34;;;;;;;5.30;2.80;;;30.70;27.20;;;;;;5136498;27;20209;-77
2023/06/15 10:37:08;;;;;;;3.92;2.80;;;29.60;28.20;;;;;;5136340;27;20221;-78
2023/06/15 10:39:41;;;;;;;5.55;2.80;;;29.30;28.80;;;;;;5151945;27;20263;-77
2023/06/15 10:42:13;;;;;;;3.97;3.05;;;29.20;29.60;;;;;;5157228;27;20611;-82
2023/06/15 10:44:42;;;;;;;4.18;2.90;;;28.10;28.00;;;;;;5157520;27;20204;-79
2023/06/15 10:47:11;;;;;;;5.53;2.90;;;28.40;30.00;;;;;;5139788;27;20255;-78
2023/06/15 10:49:49;;;;;;;4.15;2.80;;;28.90;29.50;;;;;;5136215;27;20215;-79
2023/06/15 10:52:18;;;;;;;5.10;2.80;;;29.30;27.70;;;;;;5136241;27;20591;-83
2023/06/15 10:54:47;;;;;;;4.50;2.83;;;29.00;28.10;;;;;;5136710;27;20228;-79
2023/06/15 10:57:26;;;;;;;3.00;2.67;;;28.70;26.10;;;;;;5136196;27;20224;-78
2023/06/15 10:59:57;;;;;;;4.50;2.95;;;27.60;29.20;;;;;;5136225;27;20246;-82
2023/06/15 11:02:59;;;;;;;6.22;2.90;;;26.60;29.80;;;;;;5135676;27;20656;-81
2023/06/15 11:05:42;;;;;;;6.93;3.10;;;25.50;32.00;;;;;;5112371;27;20228;-79
2023/06/15 11:08:21;;;;;;;3.10;2.80;;;25.60;33.30;;;;;;5136209;27;20202;-86
2023/06/15 11:10:49;;;;;;;5.07;3.17;;;24.90;34.50;;;;;;5135211;27;20212;-77
2023/06/15 11:13:26;;;;;;;6.70;3.10;;;23.80;36.00;;;;;;5134892;27;20216;-79
2023/06/15 11:16:08;;;;;;;5.43;3.40;;;23.60;37.90;;;;;;5135517;28;20201;-80
2023/06/15 11:18:36;;;;;;;4.63;2.90;;;23.10;38.00;;;;;;5134651;28;20247;-77
2023/06/15 11:21:05;;;;;;;4.50;3.33;;;22.70;37.50;;;;;;5135408;27;20288;-81
2023/06/15 11:23:34;;;;;;;6.23;3.10;;;22.60;37.70;;;;;;5136620;28;20209;-79
2023/06/15 11:26:02;;;;;;;5.77;3.30;;;22.50;38.70;;;;;;5135760;28;20253;-82
2023/06/15 11:28:33;;;;;;;4.30;3.30;;;22.40;40.10;;;;;;5134352;27;20578;-79
2023/06/15 11:31:07;;;;;;;5.10;3.20;;;22.30;39.20;;;;;;5153307;27;20290;-80
2023/06/15 11:33:39;;;;;;;5.17;3.13;;;22.30;40.40;;;;;;5156242;27;20193;-80
2023/06/15 11:36:09;;;;;;;7.30;3.57;;;22.20;44.00;;;;;;5156897;27;20232;-78
2023/06/15 11:38:38;;;;;;;5.70;3.40;;;22.20;42.40;;;;;;5146144;27;20622;-81
2023/06/15 11:41:08;;;;;;;4.97;3.43;;;22.10;42.00;;;;;;5154864;27;20228;-78
2023/06/15 11:43:40;;;;;;;6.47;3.73;;;22.30;43.50;;;;;;5154435;27;20211;-79
2023/06/15 11:46:12;;;;;;;4.50;3.20;;;22.30;41.20;;;;;;5137529;27;20201;-80
2023/06/15 11:48:41;;;;;;;5.50;3.30;;;22.50;40.70;;;;;;5061510;22;1246049;-79
2023/06/15 11:51:11;;;;;;;7.20;4.23;;;22.90;40.30;;;;;;5073954;28;20212;-79
2023/06/15 11:53:40;;;;;;;7.13;3.30;;;24.00;41.40;;;;;;5073734;28;20215;-79
2023/06/15 11:56:09;;;;;;;7.27;3.40;;;24.60;37.60;;;;;;5077591;28;20637;-80
2023/06/15 11:58:39;;;;;;;4.00;3.10;;;24.40;35.90;;;;;;5093914;28;20227;-79
2023/06/15 12:01:07;;;;;;;6.53;3.13;;;24.30;37.10;;;;;;5094219;28;20194;-78
2023/06/15 12:03:39;;;;;;;4.13;3.27;;;24.60;37.60;;;;;;5090145;28;20206;-79
2023/06/15 12:06:28;;;;;;;7.17;3.40;;;24.20;37.00;;;;;;5073965;28;20210;-80
2023/06/15 12:08:56;;;;;;;6.63;2.97;;;24.20;36.80;;;;;;5073293;28;20261;-79
2023/06/15 12:11:25;;;;;;;4.57;3.23;;;24.40;37.40;;;;;;5073892;28;20219;-77
2023/06/15 12:14:01;;;;;;;5.43;3.20;;;24.40;35.90;;;;;;5073428;28;20214;-76
2023/06/15 12:16:30;;;;;;;3.90;3.20;;;24.20;36.50;;;;;;5073349;28;20199;-79
2023/06/15 12:18:59;;;;;;;5.60;3.30;;;24.30;36.60;;;;;;5072297;28;20227;-78
2023/06/15 12:21:30;;;;;;;5.77;3.20;;;24.40;36.80;;;;;;5073295;28;20214;-80
2023/06/15 12:23:58;;;;;;;5.07;3.30;;;24.00;39.00;;;;;;5072994;28;20214;-78
2023/06/15 12:26:32;;;;;;;3.77;3.30;;;24.00;36.40;;;;;;5073421;28;20297;-79
2023/06/15 12:29:13;;;;;;;3.83;3.30;;;24.10;37.60;;;;;;5072974;28;20620;-79
2023/06/15 12:31:42;;;;;;;3.83;3.17;;;24.10;37.20;;;;;;5080607;28;20750;-80
2023/06/15 12:34:11;;;;;;;5.33;3.13;;;24.00;40.40;;;;;;5079409;28;20211;-80
2023/06/15 12:36:40;;;;;;;5.60;3.00;;;24.00;40.50;;;;;;5087280;28;20250;-79
2023/06/15 12:39:10;;;;;;;5.20;3.03;;;23.80;39.40;;;;;;5093467;28;20230;-79
2023/06/15 12:41:39;;;;;;;4.00;3.27;;;24.10;38.50;;;;;;5092535;28;20214;-81
2023/06/15 12:44:09;;;;;;;3.87;3.17;;;24.00;37.40;;;;;;5086763;28;20234;-79
2023/06/15 12:46:38;;;;;;;8.80;3.10;;;24.00;36.10;;;;;;5073823;28;20211;-82
2023/06/15 12:49:07;;;;;;;4.47;3.03;;;23.70;36.00;;;;;;5082527;28;20242;-79
2023/06/15 12:51:35;;;;;;;4.03;3.20;;;23.80;37.80;;;;;;5093140;28;20314;-78
2023/06/15 12:54:04;;;;;;;4.40;3.27;;;23.50;32.80;;;;;;5074567;28;20211;-79
2023/06/15 12:56:33;;;;;;;3.70;2.80;;;24.00;34.60;;;;;;5072535;28;20697;-78
2023/06/15 12:59:02;;;;;;;3.50;2.60;;;24.70;35.00;;;;;;5072501;28;20273;-79
2023/06/15 13:01:32;;;;;;;4.97;2.87;;;25.20;33.50;;;;;;5072885;28;20207;-83